createdAt,value
2022-12-11T00:00:53.126Z,7.33
2022-12-11T00:03:19.919Z,7.67
2022-12-11T00:05:46.921Z,7.67
2022-12-11T00:08:14.018Z,7.77
2022-12-11T00:10:47.029Z,7.23
2022-12-11T00:13:16.456Z,8.20
2022-12-11T00:15:45.163Z,7.57
2022-12-11T00:18:13.988Z,8.70
2022-12-11T00:20:40.971Z,6.97
2022-12-11T00:23:07.659Z,7.03
2022-12-11T00:25:34.306Z,7.83
2022-12-11T00:28:00.977Z,7.57
2022-12-11T00:30:27.595Z,7.53
2022-12-11T00:32:54.198Z,7.80
2022-12-11T00:35:20.783Z,8.33
2022-12-11T00:37:47.378Z,8.27
2022-12-11T00:40:13.965Z,8.10
2022-12-11T00:42:40.571Z,8.20
2022-12-11T00:45:07.920Z,8.90
2022-12-11T00:47:34.712Z,7.53
2022-12-11T00:50:01.286Z,9.20
2022-12-11T00:52:27.918Z,8.83
2022-12-11T00:54:54.512Z,8.83
2022-12-11T00:57:21.130Z,9.17
2022-12-11T00:59:47.837Z,8.37
2022-12-11T01:02:14.498Z,8.80
2022-12-11T01:04:41.161Z,8.60
2022-12-11T01:07:07.774Z,9.00
2022-12-11T01:09:53.066Z,8.93
2022-12-11T01:12:19.672Z,9.00
2022-12-11T01:14:46.276Z,9.97
2022-12-11T01:17:12.865Z,9.00
2022-12-11T01:19:39.523Z,9.43
2022-12-11T01:22:06.186Z,8.87
2022-12-11T01:24:35.065Z,8.57
2022-12-11T01:27:02.378Z,8.67
2022-12-11T01:29:28.983Z,9.93
2022-12-11T01:31:55.706Z,10.20
2022-12-11T01:34:22.363Z,9.90
2022-12-11T01:36:48.931Z,10.77
2022-12-11T01:39:15.495Z,8.63
2022-12-11T01:41:42.063Z,9.80
2022-12-11T01:44:28.566Z,9.20
2022-12-11T01:46:55.187Z,9.40
2022-12-11T01:49:25.837Z,9.20
2022-12-11T01:52:17.725Z,9.00
2022-12-11T01:54:44.564Z,9.40
2022-12-11T01:57:13.233Z,10.07
2022-12-11T01:59:42.621Z,9.20
2022-12-11T02:02:27.835Z,8.93
2022-12-11T02:04:54.486Z,9.57
2022-12-11T02:07:21.213Z,8.97
2022-12-11T02:09:48.513Z,9.20
2022-12-11T02:12:21.015Z,9.10
2022-12-11T02:14:59.577Z,9.40
2022-12-11T02:18:12.960Z,10.60
2022-12-11T02:21:06.451Z,10.37
2022-12-11T02:23:57.061Z,11.00
2022-12-11T02:26:51.391Z,10.67
2022-12-11T02:29:39.299Z,11.20
2022-12-11T02:32:31.616Z,10.93
2022-12-11T02:35:13.490Z,10.87
2022-12-11T02:37:43.557Z,10.93
2022-12-11T02:40:13.435Z,11.10
2022-12-11T02:42:43.301Z,10.20
2022-12-11T02:45:12.450Z,11.00
2022-12-11T02:47:40.085Z,11.07
2022-12-11T02:50:10.579Z,11.17
2022-12-11T02:52:39.123Z,11.30
2022-12-11T02:55:08.435Z,11.20
2022-12-11T02:57:42.412Z,11.57
2022-12-11T03:00:09.743Z,11.17
2022-12-11T03:02:37.499Z,10.97
2022-12-11T03:05:04.756Z,10.97
2022-12-11T03:07:37.766Z,11.03
2022-12-11T03:10:07.038Z,11.67
2022-12-11T03:12:38.635Z,10.90
2022-12-11T03:15:10.067Z,11.07
2022-12-11T03:18:02.521Z,11.00
2022-12-11T03:20:45.691Z,11.80
2022-12-11T03:23:28.563Z,11.23
2022-12-11T03:25:59.291Z,10.43
2022-12-11T03:28:40.020Z,10.70
2022-12-11T03:31:11.618Z,10.57
2022-12-11T03:33:41.790Z,10.53
2022-12-11T03:36:17.378Z,10.20
2022-12-11T03:38:58.240Z,9.40
2022-12-11T03:41:28.052Z,9.80
2022-12-11T03:43:58.321Z,9.80
2022-12-11T03:46:34.187Z,10.03
2022-12-11T03:49:12.913Z,9.20
2022-12-11T03:51:42.249Z,9.23
2022-12-11T03:54:10.122Z,9.77
2022-12-11T03:56:38.739Z,9.63
2022-12-11T03:59:05.384Z,9.83
2022-12-11T04:01:31.994Z,9.53
2022-12-11T04:04:01.463Z,9.40
2022-12-11T04:06:28.086Z,10.17
2022-12-11T04:08:54.676Z,9.63
2022-12-11T04:11:36.406Z,10.40
2022-12-11T04:14:32.248Z,9.80
2022-12-11T04:17:00.539Z,9.77
2022-12-11T04:19:45.978Z,9.90
2022-12-11T04:22:34.476Z,9.97
2022-12-11T04:25:02.404Z,10.00
2022-12-11T04:27:47.680Z,9.30
2022-12-11T04:30:28.119Z,9.50
2022-12-11T04:32:59.024Z,10.27
2022-12-11T04:35:25.651Z,9.77
2022-12-11T04:37:52.393Z,9.90
2022-12-11T04:40:19.551Z,10.43
2022-12-11T04:42:46.230Z,9.60
2022-12-11T04:45:13.923Z,10.43
2022-12-11T04:47:41.251Z,10.07
2022-12-11T04:50:10.321Z,10.73
2022-12-11T04:52:36.932Z,10.47
2022-12-11T04:55:09.148Z,10.37
2022-12-11T04:57:36.042Z,10.87
2022-12-11T05:00:05.553Z,10.13
2022-12-11T05:02:35.957Z,10.87
2022-12-11T05:05:04.406Z,11.10
2022-12-11T05:07:31.256Z,11.00
2022-12-11T05:09:58.006Z,11.13
2022-12-11T05:12:24.655Z,10.83
2022-12-11T05:14:55.310Z,10.07
2022-12-11T05:17:22.559Z,10.53
2022-12-11T05:19:50.976Z,10.87
2022-12-11T05:22:18.639Z,11.00
2022-12-11T05:24:45.679Z,10.33
2022-12-11T05:27:12.519Z,10.80
2022-12-11T05:29:39.159Z,10.87
2022-12-11T05:32:05.849Z,11.07
2022-12-11T05:34:32.923Z,10.30
2022-12-11T05:36:59.764Z,10.27
2022-12-11T05:39:26.353Z,11.23
2022-12-11T05:41:52.910Z,11.93
2022-12-11T05:44:19.622Z,11.53
2022-12-11T05:46:46.326Z,10.60
2022-12-11T05:49:13.080Z,10.97
2022-12-11T05:51:41.126Z,11.37
2022-12-11T05:54:07.879Z,11.30
2022-12-11T05:56:35.520Z,11.40
2022-12-11T05:59:04.160Z,11.57
2022-12-11T06:01:37.758Z,11.30
2022-12-11T06:04:06.693Z,10.73
2022-12-11T06:06:33.743Z,10.70
2022-12-11T06:09:01.181Z,11.00
2022-12-11T06:11:29.637Z,11.03
2022-12-11T06:13:56.578Z,11.97
2022-12-11T06:16:24.705Z,11.20
2022-12-11T06:18:52.286Z,12.03
2022-12-11T06:21:25.791Z,11.53
2022-12-11T06:23:54.254Z,10.93
2022-12-11T06:26:21.903Z,11.80
2022-12-11T06:28:49.074Z,11.17
2022-12-11T06:31:16.268Z,10.70
2022-12-11T06:33:43.368Z,11.43
2022-12-11T06:36:16.159Z,11.40
2022-12-11T06:38:43.338Z,11.80
2022-12-11T06:41:11.575Z,11.00
2022-12-11T06:43:40.176Z,11.47
2022-12-11T06:46:08.683Z,11.50
2022-12-11T06:48:37.858Z,13.20
2022-12-11T06:51:08.557Z,12.03
2022-12-11T06:53:35.403Z,11.67
2022-12-11T06:56:16.018Z,12.00
2022-12-11T06:58:43.984Z,10.70
2022-12-11T07:01:16.625Z,12.63
2022-12-11T07:03:43.386Z,11.57
2022-12-11T07:06:10.486Z,12.67
2022-12-11T07:08:37.466Z,12.63
2022-12-11T07:11:06.494Z,12.43
2022-12-11T07:13:33.712Z,12.30
2022-12-11T07:16:01.798Z,13.23
2022-12-11T07:18:28.473Z,12.27
2022-12-11T07:20:57.580Z,12.70
2022-12-11T07:23:24.304Z,12.43
2022-12-11T07:25:50.931Z,11.90
2022-12-11T07:28:17.506Z,12.10
2022-12-11T07:30:44.135Z,12.43
2022-12-11T07:33:10.727Z,12.30
2022-12-11T07:35:37.602Z,11.80
2022-12-11T07:38:04.284Z,11.87
2022-12-11T07:40:31.620Z,12.50
2022-12-11T07:42:58.194Z,12.63
2022-12-11T07:45:26.271Z,12.77
2022-12-11T07:47:53.008Z,12.77
2022-12-11T07:50:19.741Z,12.30
2022-12-11T07:52:46.528Z,12.13
2022-12-11T07:55:13.371Z,13.40
2022-12-11T07:57:40.543Z,12.67
2022-12-11T08:00:07.763Z,12.60
2022-12-11T08:02:39.149Z,12.40
2022-12-11T08:05:06.387Z,12.50
2022-12-11T08:07:35.460Z,13.30
2022-12-11T08:10:04.137Z,12.17
2022-12-11T08:12:30.765Z,12.17
2022-12-11T08:14:57.410Z,12.87
2022-12-11T08:17:29.470Z,12.27
2022-12-11T08:19:57.565Z,12.53
2022-12-11T08:22:24.200Z,12.13
2022-12-11T08:24:51.028Z,12.73
2022-12-11T08:27:17.779Z,12.23
2022-12-11T08:29:45.659Z,11.80
2022-12-11T08:32:13.619Z,12.23
2022-12-11T08:34:40.465Z,11.87
2022-12-11T08:37:07.033Z,11.10
2022-12-11T08:39:33.673Z,13.17
2022-12-11T08:42:00.316Z,13.20
2022-12-11T08:44:27.951Z,12.47
2022-12-11T08:46:54.548Z,12.57
2022-12-11T08:49:21.160Z,11.97
2022-12-11T08:51:48.099Z,12.20
2022-12-11T08:54:14.860Z,11.80
2022-12-11T08:56:41.609Z,12.47
2022-12-11T08:59:08.218Z,11.53
2022-12-11T09:01:37.647Z,11.57
2022-12-11T09:04:04.412Z,11.63
2022-12-11T09:06:33.223Z,11.80
2022-12-11T09:09:01.620Z,11.13
2022-12-11T09:11:32.060Z,11.93
2022-12-11T09:14:03.576Z,11.43
2022-12-11T09:16:37.500Z,11.23
2022-12-11T09:19:04.185Z,11.13
2022-12-11T09:21:30.956Z,10.13
2022-12-11T09:23:59.497Z,10.87
2022-12-11T09:26:27.827Z,11.40
2022-12-11T09:28:55.301Z,10.73
2022-12-11T09:31:30.359Z,11.33
2022-12-11T09:34:02.519Z,11.37
2022-12-11T09:36:29.645Z,11.33
2022-12-11T09:38:59.497Z,11.33
2022-12-11T09:41:36.178Z,10.87
2022-12-11T09:44:21.649Z,11.67
2022-12-11T09:46:49.671Z,11.40
2022-12-11T09:49:28.375Z,11.50
2022-12-11T09:52:13.942Z,11.03
2022-12-11T09:54:52.770Z,11.50
2022-12-11T09:57:41.628Z,11.57
2022-12-11T10:00:30.453Z,11.03
2022-12-11T10:03:30.947Z,11.97
2022-12-11T10:06:22.912Z,11.63
2022-12-11T10:09:11.627Z,11.30
2022-12-11T10:12:03.203Z,11.73
2022-12-11T10:14:45.959Z,12.07
2022-12-11T10:17:15.593Z,12.27
2022-12-11T10:19:42.641Z,12.00
2022-12-11T10:22:19.041Z,11.73
2022-12-11T10:25:12.392Z,11.80
2022-12-11T10:27:44.683Z,12.17
2022-12-11T10:30:24.700Z,12.10
2022-12-11T10:33:04.950Z,11.93
2022-12-11T10:35:35.517Z,12.10
2022-12-11T10:38:30.365Z,11.07
2022-12-11T10:41:09.602Z,11.17
2022-12-11T10:43:48.526Z,10.97
2022-12-11T10:46:24.905Z,11.33
2022-12-11T10:48:59.879Z,11.13
2022-12-11T10:51:32.679Z,12.00
2022-12-11T10:54:24.932Z,11.37
2022-12-11T10:56:51.751Z,10.70
2022-12-11T10:59:49.215Z,10.77
2022-12-11T11:02:36.657Z,10.33
2022-12-11T11:05:16.935Z,10.77
2022-12-11T11:07:43.869Z,9.70
2022-12-11T11:10:10.623Z,10.13
2022-12-11T11:12:46.871Z,9.97
2022-12-11T11:15:22.526Z,9.47
2022-12-11T11:18:07.200Z,10.60
2022-12-11T11:20:34.782Z,9.07
2022-12-11T11:23:04.867Z,9.10
2022-12-11T11:25:33.545Z,9.77
2022-12-11T11:28:15.311Z,9.53
2022-12-11T11:30:42.402Z,9.30
2022-12-11T11:33:17.479Z,10.10
2022-12-11T11:35:59.136Z,10.50
2022-12-11T11:38:30.782Z,11.50
2022-12-11T11:41:19.085Z,12.13
2022-12-11T11:43:56.650Z,11.43
2022-12-11T11:46:49.380Z,12.37
2022-12-11T11:49:44.336Z,12.20
2022-12-11T11:52:34.549Z,12.20
2022-12-11T11:55:17.304Z,12.13
2022-12-11T11:57:55.562Z,12.73
2022-12-11T12:00:28.819Z,11.23
2022-12-11T12:03:03.480Z,10.33
2022-12-11T12:06:08.827Z,11.57
2022-12-11T12:08:49.811Z,12.40
2022-12-11T12:11:19.510Z,13.10
2022-12-11T12:14:50.735Z,15.03
2022-12-11T12:17:04.986Z,12.10
2022-12-11T12:20:04.802Z,11.03
2022-12-11T12:22:48.251Z,11.40
2022-12-11T12:25:27.092Z,10.90
2022-12-11T12:28:31.396Z,9.47
2022-12-11T12:31:13.242Z,10.83
2022-12-11T12:34:04.644Z,11.20
2022-12-11T12:36:51.280Z,10.53
2022-12-11T12:39:36.691Z,9.47
2022-12-11T12:42:21.213Z,10.40
2022-12-11T12:44:59.387Z,10.27
2022-12-11T12:47:30.731Z,11.40
2022-12-11T12:49:59.723Z,11.07
2022-12-11T12:52:35.173Z,11.20
2022-12-11T12:55:22.842Z,10.83
2022-12-11T12:57:57.527Z,10.97
2022-12-11T13:00:28.406Z,10.97
2022-12-11T13:02:56.269Z,10.03
2022-12-11T13:05:33.219Z,11.70
2022-12-11T13:08:04.723Z,13.47
2022-12-11T13:10:40.620Z,11.33
2022-12-11T13:13:38.253Z,11.20
2022-12-11T13:16:17.090Z,10.53
2022-12-11T13:18:47.424Z,10.07
2022-12-11T13:21:31.210Z,12.00
2022-12-11T13:24:15.498Z,13.40
2022-12-11T13:26:45.068Z,10.67
2022-12-11T13:29:36.498Z,11.77
2022-12-11T13:32:09.140Z,11.47
2022-12-11T13:34:42.070Z,11.10
2022-12-11T13:37:29.737Z,12.67
2022-12-11T13:39:57.215Z,10.97
2022-12-11T13:42:48.250Z,11.10
2022-12-11T13:45:49.858Z,10.93
2022-12-11T13:48:24.520Z,10.50
2022-12-11T13:50:53.256Z,11.00
2022-12-11T13:53:21.360Z,10.57
2022-12-11T13:56:01.028Z,11.00
2022-12-11T13:58:28.827Z,9.83
2022-12-11T14:01:07.872Z,10.40
2022-12-11T14:03:35.294Z,10.40
2022-12-11T14:06:03.654Z,10.83
2022-12-11T14:08:35.868Z,9.97
2022-12-11T14:11:03.234Z,10.57
2022-12-11T14:13:37.311Z,10.53
2022-12-11T14:16:06.061Z,10.53
2022-12-11T14:18:35.529Z,11.30
2022-12-11T14:21:05.583Z,10.90
2022-12-11T14:23:34.762Z,11.03
2022-12-11T14:26:17.447Z,10.23
2022-12-11T14:28:44.605Z,10.83
2022-12-11T14:31:16.692Z,10.83
2022-12-11T14:33:53.825Z,11.60
2022-12-11T14:36:21.679Z,11.87
2022-12-11T14:38:56.158Z,11.30
2022-12-11T14:41:42.646Z,11.27
2022-12-11T14:44:15.416Z,10.30
2022-12-11T14:46:55.786Z,11.27
2022-12-11T14:49:46.457Z,10.87
2022-12-11T14:52:24.148Z,11.47
2022-12-11T14:54:56.835Z,12.20
2022-12-11T14:57:28.100Z,11.37
2022-12-11T14:59:56.249Z,11.47
2022-12-11T15:02:30.054Z,12.00
2022-12-11T15:05:22.359Z,12.67
2022-12-11T15:08:02.464Z,12.87
2022-12-11T15:10:37.204Z,11.80
2022-12-11T15:13:08.221Z,12.37
2022-12-11T15:15:45.529Z,11.63
2022-12-11T15:18:29.586Z,11.90
2022-12-11T15:20:59.482Z,11.63
2022-12-11T15:23:27.501Z,12.27
2022-12-11T15:25:57.562Z,12.43
2022-12-11T15:28:30.241Z,12.10
2022-12-11T15:30:59.935Z,11.67
2022-12-11T15:33:32.510Z,11.87
2022-12-11T15:36:06.259Z,11.77
2022-12-11T15:38:42.130Z,12.43
2022-12-11T15:41:17.651Z,12.33
2022-12-11T15:43:44.964Z,13.90
2022-12-11T15:46:11.752Z,13.43
2022-12-11T15:48:38.371Z,13.00
2022-12-11T15:51:05.366Z,11.87
2022-12-11T15:53:31.959Z,12.80
2022-12-11T15:55:59.864Z,13.97
2022-12-11T15:58:27.385Z,12.73
2022-12-11T16:00:54.784Z,12.77
2022-12-11T16:03:23.492Z,11.97
2022-12-11T16:05:52.062Z,12.27
2022-12-11T16:08:21.878Z,12.73
2022-12-11T16:10:49.267Z,12.00
2022-12-11T16:13:16.012Z,12.83
2022-12-11T16:15:44.852Z,12.57
2022-12-11T16:18:17.341Z,12.03
2022-12-11T16:20:45.130Z,12.60
2022-12-11T16:23:13.396Z,13.70
2022-12-11T16:25:41.787Z,13.00
2022-12-11T16:28:10.327Z,12.77
2022-12-11T16:30:37.948Z,14.50
2022-12-11T16:33:12.137Z,12.40
2022-12-11T16:35:40.189Z,13.20
2022-12-11T16:38:07.707Z,12.90
2022-12-11T16:40:34.364Z,13.00
2022-12-11T16:43:00.944Z,14.17
2022-12-11T16:45:28.015Z,13.77
2022-12-11T16:47:54.997Z,13.63
2022-12-11T16:50:22.317Z,13.63
2022-12-11T16:52:49.129Z,14.87
2022-12-11T16:55:15.848Z,13.60
2022-12-11T16:57:42.638Z,14.70
2022-12-11T17:00:12.694Z,14.97
2022-12-11T17:02:39.877Z,14.13
2022-12-11T17:05:06.742Z,15.23
2022-12-11T17:07:33.629Z,14.90
2022-12-11T17:10:02.736Z,15.90
2022-12-11T17:12:30.280Z,15.50
2022-12-11T17:14:57.176Z,14.80
2022-12-11T17:17:24.751Z,15.03
2022-12-11T17:19:51.514Z,14.30
2022-12-11T17:22:18.180Z,15.23
2022-12-11T17:24:44.750Z,16.47
2022-12-11T17:27:11.387Z,15.33
2022-12-11T17:29:38.109Z,14.30
2022-12-11T17:32:05.265Z,14.13
2022-12-11T17:34:37.888Z,14.67
2022-12-11T17:37:05.834Z,15.30
2022-12-11T17:39:32.463Z,15.00
2022-12-11T17:41:59.084Z,14.53
2022-12-11T17:44:26.528Z,14.87
2022-12-11T17:46:53.620Z,15.53
2022-12-11T17:49:20.392Z,17.87
2022-12-11T17:51:47.827Z,15.83
2022-12-11T17:54:14.865Z,17.57
2022-12-11T17:56:41.598Z,16.73
2022-12-11T17:59:08.268Z,16.50
2022-12-11T18:01:35.063Z,17.50
2022-12-11T18:04:02.235Z,16.83
2022-12-11T18:06:29.848Z,16.03
2022-12-11T18:08:56.752Z,16.27
2022-12-11T18:11:24.111Z,16.33
2022-12-11T18:13:52.829Z,16.37
2022-12-11T18:16:29.033Z,15.63
2022-12-11T18:18:56.448Z,16.87
2022-12-11T18:21:26.054Z,15.57
2022-12-11T18:23:53.532Z,16.27
2022-12-11T18:26:20.757Z,15.90
2022-12-11T18:28:48.400Z,15.93
2022-12-11T18:31:15.896Z,16.50
2022-12-11T18:33:43.913Z,15.30
2022-12-11T18:36:12.364Z,16.20
2022-12-11T18:38:39.782Z,16.40
2022-12-11T18:41:08.285Z,14.87
2022-12-11T18:43:35.155Z,15.07
2022-12-11T18:46:06.505Z,15.17
2022-12-11T18:48:33.377Z,16.73
2022-12-11T18:51:00.179Z,17.23
2022-12-11T18:53:26.792Z,16.43
2022-12-11T18:55:58.654Z,17.83
2022-12-11T18:58:26.935Z,19.50
2022-12-11T19:00:53.570Z,17.50
2022-12-11T19:03:20.167Z,17.30
2022-12-11T19:05:46.761Z,18.27
2022-12-11T19:08:14.084Z,16.90
2022-12-11T19:10:42.966Z,16.53
2022-12-11T19:13:09.995Z,17.20
2022-12-11T19:15:41.225Z,16.87
2022-12-11T19:18:08.235Z,17.80
2022-12-11T19:21:06.428Z,18.17
2022-12-11T19:23:26.007Z,17.70
2022-12-11T19:25:52.702Z,17.73
2022-12-11T19:28:19.393Z,18.10
2022-12-11T19:30:48.687Z,18.10
2022-12-11T19:33:16.338Z,19.07
2022-12-11T19:35:43.180Z,18.93
2022-12-11T19:38:09.855Z,18.93
2022-12-11T19:40:41.107Z,18.10
2022-12-11T19:43:07.869Z,19.10
2022-12-11T19:45:34.711Z,19.33
2022-12-11T19:48:01.490Z,20.30
2022-12-11T19:50:28.197Z,21.30
2022-12-11T19:52:54.782Z,20.27
2022-12-11T19:55:21.568Z,20.47
2022-12-11T19:57:48.187Z,21.20
2022-12-11T20:00:15.194Z,20.60
2022-12-11T20:02:41.782Z,21.27
2022-12-11T20:05:09.312Z,20.70
2022-12-11T20:07:36.310Z,19.43
2022-12-11T20:10:03.323Z,19.07
2022-12-11T20:12:30.301Z,18.83
2022-12-11T20:14:56.866Z,18.27
2022-12-11T20:17:24.022Z,18.20
2022-12-11T20:19:50.626Z,19.63
2022-12-11T20:22:17.225Z,19.73
2022-12-11T20:24:44.089Z,19.63
2022-12-11T20:27:12.283Z,19.40
2022-12-11T20:29:39.164Z,19.57
2022-12-11T20:32:07.177Z,19.53
2022-12-11T20:34:33.867Z,18.53
2022-12-11T20:37:00.564Z,19.23
2022-12-11T20:39:27.269Z,17.17
2022-12-11T20:41:53.856Z,17.97
2022-12-11T20:44:20.618Z,19.57
2022-12-11T20:46:47.215Z,17.90
2022-12-11T20:49:13.830Z,17.20
2022-12-11T20:51:40.735Z,18.67
2022-12-11T20:54:07.720Z,17.63
2022-12-11T20:56:34.469Z,17.80
2022-12-11T20:59:01.298Z,18.23
2022-12-11T21:01:31.480Z,18.40
2022-12-11T21:03:59.625Z,17.40
2022-12-11T21:06:30.968Z,18.67
2022-12-11T21:09:00.240Z,17.77
2022-12-11T21:11:27.474Z,18.27
2022-12-11T21:13:54.363Z,19.43
2022-12-11T21:16:22.071Z,18.47
2022-12-11T21:18:48.950Z,17.97
2022-12-11T21:21:16.306Z,21.83
2022-12-11T21:23:43.483Z,20.50
2022-12-11T21:26:10.270Z,17.90
2022-12-11T21:28:36.982Z,17.07
2022-12-11T21:31:07.462Z,17.80
2022-12-11T21:33:34.681Z,17.67
2022-12-11T21:36:01.662Z,18.03
2022-12-11T21:38:28.632Z,18.73
2022-12-11T21:40:55.735Z,19.40
2022-12-11T21:43:22.999Z,18.43
2022-12-11T21:46:00.826Z,18.67
2022-12-11T21:48:28.513Z,18.70
2022-12-11T21:50:55.204Z,17.63
2022-12-11T21:53:21.796Z,18.57
2022-12-11T21:55:48.383Z,18.67
2022-12-11T21:58:15.594Z,19.00
2022-12-11T22:00:42.396Z,18.73
2022-12-11T22:03:09.133Z,20.40
2022-12-11T22:05:35.733Z,19.80
2022-12-11T22:08:02.447Z,18.70
2022-12-11T22:10:29.305Z,18.83
2022-12-11T22:12:55.941Z,19.70
2022-12-11T22:15:22.597Z,19.80
2022-12-11T22:17:49.383Z,20.40
2022-12-11T22:20:16.054Z,21.57
2022-12-11T22:22:42.662Z,20.57
2022-12-11T22:25:09.920Z,20.40
2022-12-11T22:27:36.771Z,20.23
2022-12-11T22:30:04.440Z,19.77
2022-12-11T22:32:31.050Z,20.03
2022-12-11T22:34:57.762Z,19.27
2022-12-11T22:37:24.914Z,19.53
2022-12-11T22:39:51.602Z,19.77
2022-12-11T22:42:18.237Z,18.17
2022-12-11T22:44:44.851Z,19.90
2022-12-11T22:47:11.508Z,19.53
2022-12-11T22:49:38.208Z,19.10
2022-12-11T22:52:05.011Z,19.30
2022-12-11T22:54:31.945Z,19.87
2022-12-11T22:56:58.526Z,19.77
2022-12-11T22:59:25.138Z,19.90
2022-12-11T23:01:51.791Z,18.43
2022-12-11T23:04:18.439Z,18.90
2022-12-11T23:06:45.039Z,19.40
2022-12-11T23:09:12.006Z,18.43
2022-12-11T23:11:39.899Z,18.17
2022-12-11T23:14:10.852Z,18.77
2022-12-11T23:16:37.515Z,18.60
2022-12-11T23:19:04.245Z,18.57
2022-12-11T23:21:31.097Z,19.87
2022-12-11T23:23:58.631Z,19.57
2022-12-11T23:26:27.180Z,19.00
2022-12-11T23:28:55.138Z,19.57
2022-12-11T23:31:22.872Z,18.70
2022-12-11T23:33:49.691Z,18.87
2022-12-11T23:36:16.402Z,20.10
2022-12-11T23:38:43.020Z,18.50
2022-12-11T23:41:11.961Z,18.77
2022-12-11T23:43:39.088Z,19.63
2022-12-11T23:46:15.715Z,18.57
2022-12-11T23:48:42.825Z,19.17
2022-12-11T23:51:12.833Z,18.63
2022-12-11T23:53:39.718Z,18.80
2022-12-11T23:56:13.220Z,18.93
2022-12-11T23:58:40.653Z,17.83
